Irvine, PA

7:05 AM EDT on July 31, 2014 (GMT -0400)
Bradford Regional (KBFD) Elev 2142 ft | 41.80 °N, 78.64 °W | Change Station

Current weather conditions updated 12 minutes ago

Overcast
Overcast
56 °F
Feels Like 56 °F
N
0
Wind Variable Wind from North

Today is forecast to be Much Warmer than yesterday. A few morning showers.

Today
High -- | Low -- °F
--% Chance of Precip.
Yesterday
High -- | Low -- °F
Precip. -- in
6:09 AM 8:36 PM
Waxing Crescent, 17% visible
Pressure 30.05 in
Visibility 6.0 miles
Clouds Overcast 600 ft
Dew Point 54 °F
Humidity 93%
Rainfall 0.00 in
Snow Depth Not available.
UV 0 out of 12
Pollen 6.90 out of 12
Air Quality Not available.
Flu Activity Not available.
METAR KBFD 311053Z AUTO 00000KT 6SM BR OVC006 13/12 A3006 RMK AO2 CIG 003V011 SLP174 T01330122

More Conditions Fewer Conditions

Pressure 30.05 in
Visibility 6.0 miles
Clouds Overcast 600 ft
Dew Point 54 °F
Humidity 93%
Rainfall 0.00 in
Snow Depth Not available.
UV 0 out of 12
Pollen 6.90 out of 12
Air Quality Not available.
Flu Activity Not available.
METAR KBFD 311053Z AUTO 00000KT 6SM BR OVC006 13/12 A3006 RMK AO2 CIG 003V011 SLP174 T01330122

More Conditions Fewer Conditions

10-Day Weather Forecast

Almanac

Astronomy

Jul. 31, 2014 Rise Set
Actual Time 6:09 AM EDT 8:36 PM EDT
Civil Twilight 5:38 AM EDT 9:07 PM EDT
Nautical Twilight 4:59 AM EDT 9:46 PM EDT
Astronomical Twilight 4:15 AM EDT 10:30 PM EDT
Moon 10:40 AM EDT 10:43 PM EDT
Length of Visible Light 15h 29m
Length of Day
14h 26m
Tomorrow will be 2m 6s shorter.
Waxing Crescent, 17% of the Moon is Illuminated
Today
Waxing Crescent
Aug 3
First Quarter
Aug 10
Full
Aug 17
Last Quarter
Aug 25
New

Today's Extremes

State Highs State Lows

Community

WunderPhotos

Upload Photos

1,739,290 photos uploaded!

Nearby

Snow Depth

Station Depth Elevation
No new snow has been reported.

Earthquake Activity

City Distance Mag. Time & Date
No recent earthquake activity has been reported nearby.
Minimum magnitude displayed is 2.5.

Coastal Water Temperatures

Place Temperature
No Stations Reporting

Nearby Weather Stations

Station Location Temp. Dew Point Humidity Wind Precip. Elev Updated Type
Brokenstraw Airport, Pittsfield, PA 57.2 °F 57 °F 99% SSW  at  0.0 mph 0.00 in / hr 1235 ft 7:05 AM EDT Rapid Fire
East Lakewood Weather, Lakewood, NY 60.0 °F 59 °F 96% WSW  at  1.0 mph 0.00 in / hr 1325 ft 7:05 AM EDT Rapid Fire
Parts Plus/Dan Backus Memorial Weather S, Jamestown, NY 58.1 °F 58 °F 98% North  at  1.0 mph 0.00 in / hr 1250 ft 7:05 AM EDT Rapid Fire
Dutch Hollow Rd by VFW, Bemus Point, NY 57.2 °F 55 °F 93% West  at  3.0 mph 0.00 in / hr 1772 ft 7:05 AM EDT Normal

Show More Stations Show Fewer Stations